sensor_id;sensor_type;location;lat;lon;timestamp;P1;durP1;ratioP1;P2;durP2;ratioP2
6878;SDS011;3478;51.462;7.338;2023-02-28T00:02:51;3.63;;;3.33;;
6878;SDS011;3478;51.462;7.338;2023-02-28T00:07:54;3.50;;;2.97;;
6878;SDS011;3478;51.462;7.338;2023-02-28T00:12:59;4.03;;;2.70;;
6878;SDS011;3478;51.462;7.338;2023-02-28T00:18:02;3.60;;;3.40;;
6878;SDS011;3478;51.462;7.338;2023-02-28T00:23:06;6.50;;;3.40;;
6878;SDS011;3478;51.462;7.338;2023-02-28T00:28:07;7.00;;;3.70;;
6878;SDS011;3478;51.462;7.338;2023-02-28T00:33:09;5.77;;;4.37;;
6878;SDS011;3478;51.462;7.338;2023-02-28T00:38:12;4.33;;;3.23;;
6878;SDS011;3478;51.462;7.338;2023-02-28T00:43:14;4.23;;;3.30;;
6878;SDS011;3478;51.462;7.338;2023-02-28T00:48:16;4.23;;;3.40;;
6878;SDS011;3478;51.462;7.338;2023-02-28T00:53:20;3.10;;;2.90;;
6878;SDS011;3478;51.462;7.338;2023-02-28T00:58:22;3.83;;;2.80;;
6878;SDS011;3478;51.462;7.338;2023-02-28T01:03:24;3.43;;;3.13;;
6878;SDS011;3478;51.462;7.338;2023-02-28T01:08:27;2.90;;;2.70;;
6878;SDS011;3478;51.462;7.338;2023-02-28T01:13:29;7.33;;;2.60;;
6878;SDS011;3478;51.462;7.338;2023-02-28T01:18:31;3.43;;;1.73;;
6878;SDS011;3478;51.462;7.338;2023-02-28T01:23:34;4.13;;;2.50;;
6878;SDS011;3478;51.462;7.338;2023-02-28T01:28:36;7.97;;;2.27;;
6878;SDS011;3478;51.462;7.338;2023-02-28T01:33:38;2.47;;;2.27;;
6878;SDS011;3478;51.462;7.338;2023-02-28T01:38:42;2.90;;;2.30;;
6878;SDS011;3478;51.462;7.338;2023-02-28T01:43:52;5.50;;;3.10;;
6878;SDS011;3478;51.462;7.338;2023-02-28T01:49:04;3.53;;;2.23;;
6878;SDS011;3478;51.462;7.338;2023-02-28T01:54:12;4.53;;;2.53;;
6878;SDS011;3478;51.462;7.338;2023-02-28T01:59:19;2.30;;;2.10;;
6878;SDS011;3478;51.462;7.338;2023-02-28T02:04:24;3.40;;;2.73;;
6878;SDS011;3478;51.462;7.338;2023-02-28T02:09:30;2.47;;;2.27;;
6878;SDS011;3478;51.462;7.338;2023-02-28T02:14:39;3.17;;;2.93;;
6878;SDS011;3478;51.462;7.338;2023-02-28T02:20:00;2.77;;;2.57;;
6878;SDS011;3478;51.462;7.338;2023-02-28T02:25:24;2.93;;;2.60;;
6878;SDS011;3478;51.462;7.338;2023-02-28T02:30:40;4.23;;;2.23;;
6878;SDS011;3478;51.462;7.338;2023-02-28T02:36:00;3.73;;;3.20;;
6878;SDS011;3478;51.462;7.338;2023-02-28T02:41:08;4.90;;;3.20;;
6878;SDS011;3478;51.462;7.338;2023-02-28T02:46:19;3.23;;;3.03;;
6878;SDS011;3478;51.462;7.338;2023-02-28T02:51:25;2.20;;;2.00;;
6878;SDS011;3478;51.462;7.338;2023-02-28T02:56:31;5.87;;;2.80;;
6878;SDS011;3478;51.462;7.338;2023-02-28T03:01:34;3.23;;;2.70;;
6878;SDS011;3478;51.462;7.338;2023-02-28T03:06:39;2.20;;;2.00;;
6878;SDS011;3478;51.462;7.338;2023-02-28T03:11:41;4.23;;;2.83;;
6878;SDS011;3478;51.462;7.338;2023-02-28T03:16:49;3.00;;;2.80;;
6878;SDS011;3478;51.462;7.338;2023-02-28T03:22:06;4.80;;;2.50;;
6878;SDS011;3478;51.462;7.338;2023-02-28T03:27:25;4.43;;;2.57;;
6878;SDS011;3478;51.462;7.338;2023-02-28T03:32:32;2.90;;;2.70;;
6878;SDS011;3478;51.462;7.338;2023-02-28T03:37:38;4.13;;;2.77;;
6878;SDS011;3478;51.462;7.338;2023-02-28T03:42:45;2.83;;;2.60;;
6878;SDS011;3478;51.462;7.338;2023-02-28T03:47:52;2.80;;;2.60;;
6878;SDS011;3478;51.462;7.338;2023-02-28T03:52:58;3.53;;;2.53;;
6878;SDS011;3478;51.462;7.338;2023-02-28T03:58:05;2.27;;;2.17;;
6878;SDS011;3478;51.462;7.338;2023-02-28T04:03:16;4.00;;;2.47;;
6878;SDS011;3478;51.462;7.338;2023-02-28T04:08:19;2.90;;;2.70;;
6878;SDS011;3478;51.462;7.338;2023-02-28T04:13:22;3.10;;;2.40;;
6878;SDS011;3478;51.462;7.338;2023-02-28T04:18:24;3.13;;;2.20;;
6878;SDS011;3478;51.462;7.338;2023-02-28T04:23:27;2.50;;;2.30;;
6878;SDS011;3478;51.462;7.338;2023-02-28T04:28:29;2.73;;;2.40;;
6878;SDS011;3478;51.462;7.338;2023-02-28T04:33:31;2.50;;;2.30;;
6878;SDS011;3478;51.462;7.338;2023-02-28T04:38:35;2.33;;;2.20;;
6878;SDS011;3478;51.462;7.338;2023-02-28T04:43:39;2.23;;;2.03;;
6878;SDS011;3478;51.462;7.338;2023-02-28T04:48:40;1.67;;;1.50;;
6878;SDS011;3478;51.462;7.338;2023-02-28T04:53:45;4.50;;;2.17;;
6878;SDS011;3478;51.462;7.338;2023-02-28T04:58:47;2.57;;;2.33;;
6878;SDS011;3478;51.462;7.338;2023-02-28T05:03:51;3.60;;;3.30;;
6878;SDS011;3478;51.462;7.338;2023-02-28T05:08:55;2.20;;;2.03;;
6878;SDS011;3478;51.462;7.338;2023-02-28T05:13:57;2.17;;;2.00;;
6878;SDS011;3478;51.462;7.338;2023-02-28T05:18:59;5.97;;;2.40;;
6878;SDS011;3478;51.462;7.338;2023-02-28T05:24:03;2.87;;;2.50;;
6878;SDS011;3478;51.462;7.338;2023-02-28T05:29:06;3.03;;;2.83;;
6878;SDS011;3478;51.462;7.338;2023-02-28T05:34:08;2.57;;;2.20;;
6878;SDS011;3478;51.462;7.338;2023-02-28T05:39:12;2.50;;;2.30;;
6878;SDS011;3478;51.462;7.338;2023-02-28T05:44:14;3.50;;;2.60;;
6878;SDS011;3478;51.462;7.338;2023-02-28T05:49:17;3.37;;;3.10;;
6878;SDS011;3478;51.462;7.338;2023-02-28T05:54:20;4.13;;;2.93;;
6878;SDS011;3478;51.462;7.338;2023-02-28T05:59:22;2.90;;;2.70;;
6878;SDS011;3478;51.462;7.338;2023-02-28T06:04:24;3.53;;;3.20;;
6878;SDS011;3478;51.462;7.338;2023-02-28T06:09:27;2.73;;;2.63;;
6878;SDS011;3478;51.462;7.338;2023-02-28T06:14:29;3.63;;;3.17;;
6878;SDS011;3478;51.462;7.338;2023-02-28T06:19:31;3.10;;;2.77;;
6878;SDS011;3478;51.462;7.338;2023-02-28T06:24:35;3.37;;;3.10;;
6878;SDS011;3478;51.462;7.338;2023-02-28T06:29:36;3.00;;;2.80;;
6878;SDS011;3478;51.462;7.338;2023-02-28T06:34:39;3.90;;;3.50;;
6878;SDS011;3478;51.462;7.338;2023-02-28T06:39:43;4.70;;;2.20;;
6878;SDS011;3478;51.462;7.338;2023-02-28T06:44:45;2.97;;;2.77;;
6878;SDS011;3478;51.462;7.338;2023-02-28T06:49:48;3.20;;;3.00;;
6878;SDS011;3478;51.462;7.338;2023-02-28T06:54:52;2.93;;;2.60;;
6878;SDS011;3478;51.462;7.338;2023-02-28T07:00:00;4.63;;;3.33;;
6878;SDS011;3478;51.462;7.338;2023-02-28T07:05:04;4.80;;;3.17;;
6878;SDS011;3478;51.462;7.338;2023-02-28T07:10:09;8.57;;;3.90;;
6878;SDS011;3478;51.462;7.338;2023-02-28T07:15:12;3.97;;;3.70;;
6878;SDS011;3478;51.462;7.338;2023-02-28T07:20:14;10.23;;;2.43;;
6878;SDS011;3478;51.462;7.338;2023-02-28T07:25:17;3.30;;;3.00;;
6878;SDS011;3478;51.462;7.338;2023-02-28T07:30:20;3.80;;;2.33;;
6878;SDS011;3478;51.462;7.338;2023-02-28T07:35:22;3.70;;;3.43;;
6878;SDS011;3478;51.462;7.338;2023-02-28T07:40:25;3.77;;;3.47;;
6878;SDS011;3478;51.462;7.338;2023-02-28T07:45:28;3.10;;;2.90;;
6878;SDS011;3478;51.462;7.338;2023-02-28T07:50:31;4.57;;;2.60;;
6878;SDS011;3478;51.462;7.338;2023-02-28T07:55:35;3.37;;;3.20;;
6878;SDS011;3478;51.462;7.338;2023-02-28T08:00:37;4.30;;;3.63;;
6878;SDS011;3478;51.462;7.338;2023-02-28T08:05:39;3.70;;;3.40;;
6878;SDS011;3478;51.462;7.338;2023-02-28T08:10:43;5.10;;;4.60;;
6878;SDS011;3478;51.462;7.338;2023-02-28T08:15:45;4.67;;;4.37;;
6878;SDS011;3478;51.462;7.338;2023-02-28T08:20:47;4.00;;;3.70;;
6878;SDS011;3478;51.462;7.338;2023-02-28T08:25:54;5.17;;;3.47;;
6878;SDS011;3478;51.462;7.338;2023-02-28T08:30:57;3.70;;;3.37;;
6878;SDS011;3478;51.462;7.338;2023-02-28T08:35:59;3.77;;;3.47;;
6878;SDS011;3478;51.462;7.338;2023-02-28T08:41:03;4.27;;;3.47;;
6878;SDS011;3478;51.462;7.338;2023-02-28T08:46:07;3.40;;;3.20;;
6878;SDS011;3478;51.462;7.338;2023-02-28T08:51:12;4.90;;;3.13;;
6878;SDS011;3478;51.462;7.338;2023-02-28T08:56:17;3.40;;;3.10;;
6878;SDS011;3478;51.462;7.338;2023-02-28T09:01:20;5.23;;;3.40;;
6878;SDS011;3478;51.462;7.338;2023-02-28T09:06:24;4.90;;;3.40;;
6878;SDS011;3478;51.462;7.338;2023-02-28T09:11:28;4.60;;;3.20;;
6878;SDS011;3478;51.462;7.338;2023-02-28T09:16:31;3.30;;;3.10;;
6878;SDS011;3478;51.462;7.338;2023-02-28T09:21:33;3.90;;;2.43;;
6878;SDS011;3478;51.462;7.338;2023-02-28T09:26:36;3.93;;;2.50;;
6878;SDS011;3478;51.462;7.338;2023-02-28T09:31:38;2.13;;;1.80;;
6878;SDS011;3478;51.462;7.338;2023-02-28T09:36:40;2.57;;;2.37;;
6878;SDS011;3478;51.462;7.338;2023-02-28T09:41:44;2.53;;;2.33;;
6878;SDS011;3478;51.462;7.338;2023-02-28T09:46:51;1.33;;;1.20;;
6878;SDS011;3478;51.462;7.338;2023-02-28T09:51:59;1.60;;;1.50;;
6878;SDS011;3478;51.462;7.338;2023-02-28T09:57:07;1.90;;;1.77;;
6878;SDS011;3478;51.462;7.338;2023-02-28T10:02:15;1.30;;;0.97;;
6878;SDS011;3478;51.462;7.338;2023-02-28T10:07:39;2.40;;;2.20;;
6878;SDS011;3478;51.462;7.338;2023-02-28T10:12:57;1.37;;;1.03;;
6878;SDS011;3478;51.462;7.338;2023-02-28T10:18:02;1.73;;;1.53;;
6878;SDS011;3478;51.462;7.338;2023-02-28T10:23:09;1.37;;;1.17;;
6878;SDS011;3478;51.462;7.338;2023-02-28T10:28:17;2.23;;;1.63;;
6878;SDS011;3478;51.462;7.338;2023-02-28T10:33:21;1.60;;;1.50;;
6878;SDS011;3478;51.462;7.338;2023-02-28T10:38:26;1.47;;;0.93;;
6878;SDS011;3478;51.462;7.338;2023-02-28T10:43:30;1.90;;;1.33;;
6878;SDS011;3478;51.462;7.338;2023-02-28T10:48:33;2.17;;;1.73;;
6878;SDS011;3478;51.462;7.338;2023-02-28T10:53:37;4.93;;;1.90;;
6878;SDS011;3478;51.462;7.338;2023-02-28T10:58:51;1.30;;;1.10;;
6878;SDS011;3478;51.462;7.338;2023-02-28T11:03:54;1.37;;;0.83;;
6878;SDS011;3478;51.462;7.338;2023-02-28T11:08:58;4.13;;;0.83;;
6878;SDS011;3478;51.462;7.338;2023-02-28T11:14:04;1.50;;;1.30;;
6878;SDS011;3478;51.462;7.338;2023-02-28T11:19:07;3.47;;;1.40;;
6878;SDS011;3478;51.462;7.338;2023-02-28T11:24:22;2.73;;;1.23;;
6878;SDS011;3478;51.462;7.338;2023-02-28T11:29:29;1.90;;;1.30;;
6878;SDS011;3478;51.462;7.338;2023-02-28T11:34:32;2.50;;;1.53;;
6878;SDS011;3478;51.462;7.338;2023-02-28T11:39:34;2.60;;;1.60;;
6878;SDS011;3478;51.462;7.338;2023-02-28T11:44:45;1.50;;;1.07;;
6878;SDS011;3478;51.462;7.338;2023-02-28T11:50:02;2.33;;;1.20;;
6878;SDS011;3478;51.462;7.338;2023-02-28T11:55:15;3.93;;;1.70;;
6878;SDS011;3478;51.462;7.338;2023-02-28T12:00:28;2.00;;;1.80;;
6878;SDS011;3478;51.462;7.338;2023-02-28T12:05:38;1.70;;;1.60;;
6878;SDS011;3478;51.462;7.338;2023-02-28T12:10:50;2.00;;;1.60;;
6878;SDS011;3478;51.462;7.338;2023-02-28T12:21:33;1.30;;;1.20;;
6878;SDS011;3478;51.462;7.338;2023-02-28T12:26:45;1.87;;;1.40;;
6878;SDS011;3478;51.462;7.338;2023-02-28T12:31:49;2.70;;;2.37;;
6878;SDS011;3478;51.462;7.338;2023-02-28T12:36:55;4.20;;;1.60;;
6878;SDS011;3478;51.462;7.338;2023-02-28T12:42:03;2.07;;;1.40;;
6878;SDS011;3478;51.462;7.338;2023-02-28T12:47:13;2.53;;;1.40;;
6878;SDS011;3478;51.462;7.338;2023-02-28T12:52:20;2.20;;;2.10;;
6878;SDS011;3478;51.462;7.338;2023-02-28T12:57:27;2.30;;;1.67;;
6878;SDS011;3478;51.462;7.338;2023-02-28T13:08:27;1.73;;;1.63;;
6878;SDS011;3478;51.462;7.338;2023-02-28T13:13:58;3.80;;;1.87;;
6878;SDS011;3478;51.462;7.338;2023-02-28T13:19:08;3.50;;;2.07;;
6878;SDS011;3478;51.462;7.338;2023-02-28T13:24:13;3.10;;;1.50;;
6878;SDS011;3478;51.462;7.338;2023-02-28T13:29:43;3.93;;;2.67;;
6878;SDS011;3478;51.462;7.338;2023-02-28T13:34:47;2.73;;;2.07;;
6878;SDS011;3478;51.462;7.338;2023-02-28T13:40:36;4.30;;;2.87;;
6878;SDS011;3478;51.462;7.338;2023-02-28T13:45:38;2.13;;;1.93;;
6878;SDS011;3478;51.462;7.338;2023-02-28T13:50:40;2.13;;;1.70;;
6878;SDS011;3478;51.462;7.338;2023-02-28T13:55:45;1.80;;;1.70;;
6878;SDS011;3478;51.462;7.338;2023-02-28T14:00:59;3.17;;;2.10;;
6878;SDS011;3478;51.462;7.338;2023-02-28T14:06:16;1.70;;;1.60;;
6878;SDS011;3478;51.462;7.338;2023-02-28T14:11:26;2.33;;;2.23;;
6878;SDS011;3478;51.462;7.338;2023-02-28T14:16:41;2.00;;;1.90;;
6878;SDS011;3478;51.462;7.338;2023-02-28T14:21:49;2.63;;;2.53;;
6878;SDS011;3478;51.462;7.338;2023-02-28T14:27:14;2.33;;;2.20;;
6878;SDS011;3478;51.462;7.338;2023-02-28T14:32:26;2.03;;;1.90;;
6878;SDS011;3478;51.462;7.338;2023-02-28T14:37:33;2.37;;;2.17;;
6878;SDS011;3478;51.462;7.338;2023-02-28T14:42:45;2.10;;;2.00;;
6878;SDS011;3478;51.462;7.338;2023-02-28T14:47:49;4.43;;;2.40;;
6878;SDS011;3478;51.462;7.338;2023-02-28T14:52:52;2.70;;;2.50;;
6878;SDS011;3478;51.462;7.338;2023-02-28T14:57:57;2.80;;;2.70;;
6878;SDS011;3478;51.462;7.338;2023-02-28T15:03:01;2.70;;;2.50;;
6878;SDS011;3478;51.462;7.338;2023-02-28T15:08:20;2.57;;;2.40;;
6878;SDS011;3478;51.462;7.338;2023-02-28T15:13:23;2.30;;;2.10;;
6878;SDS011;3478;51.462;7.338;2023-02-28T15:18:37;2.73;;;2.63;;
6878;SDS011;3478;51.462;7.338;2023-02-28T15:23:49;2.77;;;2.50;;
6878;SDS011;3478;51.462;7.338;2023-02-28T15:28:57;3.60;;;2.17;;
6878;SDS011;3478;51.462;7.338;2023-02-28T15:34:02;2.17;;;2.07;;
6878;SDS011;3478;51.462;7.338;2023-02-28T15:39:17;3.03;;;2.40;;
6878;SDS011;3478;51.462;7.338;2023-02-28T15:44:25;2.30;;;2.10;;
6878;SDS011;3478;51.462;7.338;2023-02-28T15:49:31;3.23;;;3.03;;
6878;SDS011;3478;51.462;7.338;2023-02-28T15:54:39;2.10;;;2.00;;
6878;SDS011;3478;51.462;7.338;2023-02-28T15:59:48;5.20;;;2.60;;
6878;SDS011;3478;51.462;7.338;2023-02-28T16:04:56;3.47;;;3.27;;
6878;SDS011;3478;51.462;7.338;2023-02-28T16:09:59;2.50;;;2.40;;
6878;SDS011;3478;51.462;7.338;2023-02-28T16:15:05;3.03;;;2.90;;
6878;SDS011;3478;51.462;7.338;2023-02-28T16:20:11;8.73;;;3.47;;
6878;SDS011;3478;51.462;7.338;2023-02-28T16:25:15;3.60;;;3.27;;
6878;SDS011;3478;51.462;7.338;2023-02-28T16:30:21;4.57;;;3.03;;
6878;SDS011;3478;51.462;7.338;2023-02-28T16:35:24;3.10;;;2.90;;
6878;SDS011;3478;51.462;7.338;2023-02-28T16:40:26;2.93;;;2.73;;
6878;SDS011;3478;51.462;7.338;2023-02-28T16:45:30;4.03;;;3.70;;
6878;SDS011;3478;51.462;7.338;2023-02-28T16:50:32;3.63;;;2.53;;
6878;SDS011;3478;51.462;7.338;2023-02-28T16:55:34;2.63;;;2.53;;
6878;SDS011;3478;51.462;7.338;2023-02-28T17:00:38;2.70;;;2.60;;
6878;SDS011;3478;51.462;7.338;2023-02-28T17:05:39;2.70;;;2.50;;
6878;SDS011;3478;51.462;7.338;2023-02-28T17:10:41;3.33;;;3.10;;
6878;SDS011;3478;51.462;7.338;2023-02-28T17:15:45;2.40;;;2.20;;
6878;SDS011;3478;51.462;7.338;2023-02-28T17:20:47;2.50;;;2.30;;
6878;SDS011;3478;51.462;7.338;2023-02-28T17:25:50;4.03;;;2.63;;
6878;SDS011;3478;51.462;7.338;2023-02-28T17:30:55;2.90;;;2.70;;
6878;SDS011;3478;51.462;7.338;2023-02-28T17:35:57;3.23;;;2.90;;
6878;SDS011;3478;51.462;7.338;2023-02-28T17:40:59;4.50;;;3.30;;
6878;SDS011;3478;51.462;7.338;2023-02-28T17:46:02;3.10;;;2.83;;
6878;SDS011;3478;51.462;7.338;2023-02-28T17:51:05;4.60;;;3.07;;
6878;SDS011;3478;51.462;7.338;2023-02-28T17:56:09;3.93;;;2.70;;
6878;SDS011;3478;51.462;7.338;2023-02-28T18:01:14;2.60;;;2.40;;
6878;SDS011;3478;51.462;7.338;2023-02-28T18:06:17;3.00;;;2.70;;
6878;SDS011;3478;51.462;7.338;2023-02-28T18:11:22;3.10;;;2.90;;
6878;SDS011;3478;51.462;7.338;2023-02-28T18:16:27;3.47;;;3.27;;
6878;SDS011;3478;51.462;7.338;2023-02-28T18:21:29;4.10;;;3.33;;
6878;SDS011;3478;51.462;7.338;2023-02-28T18:26:31;3.70;;;3.40;;
6878;SDS011;3478;51.462;7.338;2023-02-28T18:31:34;4.20;;;3.33;;
6878;SDS011;3478;51.462;7.338;2023-02-28T18:36:36;4.67;;;3.47;;
6878;SDS011;3478;51.462;7.338;2023-02-28T18:41:39;6.50;;;3.80;;
6878;SDS011;3478;51.462;7.338;2023-02-28T18:46:42;8.70;;;5.60;;
6878;SDS011;3478;51.462;7.338;2023-02-28T18:51:44;5.93;;;4.80;;
6878;SDS011;3478;51.462;7.338;2023-02-28T18:56:47;5.23;;;4.70;;
6878;SDS011;3478;51.462;7.338;2023-02-28T19:01:51;5.10;;;4.70;;
6878;SDS011;3478;51.462;7.338;2023-02-28T19:06:53;5.03;;;4.60;;
6878;SDS011;3478;51.462;7.338;2023-02-28T19:11:54;4.93;;;4.27;;
6878;SDS011;3478;51.462;7.338;2023-02-28T19:16:58;4.60;;;3.90;;
6878;SDS011;3478;51.462;7.338;2023-02-28T19:21:59;4.00;;;3.70;;
6878;SDS011;3478;51.462;7.338;2023-02-28T19:27:01;5.10;;;4.70;;
6878;SDS011;3478;51.462;7.338;2023-02-28T19:32:04;5.67;;;4.63;;
6878;SDS011;3478;51.462;7.338;2023-02-28T19:37:06;4.43;;;4.13;;
6878;SDS011;3478;51.462;7.338;2023-02-28T19:42:09;7.23;;;5.47;;
6878;SDS011;3478;51.462;7.338;2023-02-28T19:47:13;6.43;;;5.17;;
6878;SDS011;3478;51.462;7.338;2023-02-28T19:52:15;8.87;;;6.70;;
6878;SDS011;3478;51.462;7.338;2023-02-28T19:57:17;7.13;;;6.53;;
6878;SDS011;3478;51.462;7.338;2023-02-28T20:02:20;7.67;;;6.47;;
6878;SDS011;3478;51.462;7.338;2023-02-28T20:07:22;10.90;;;5.93;;
6878;SDS011;3478;51.462;7.338;2023-02-28T20:12:24;7.50;;;6.80;;
6878;SDS011;3478;51.462;7.338;2023-02-28T20:17:28;7.20;;;6.60;;
6878;SDS011;3478;51.462;7.338;2023-02-28T20:22:30;6.53;;;5.87;;
6878;SDS011;3478;51.462;7.338;2023-02-28T20:27:32;7.53;;;6.90;;
6878;SDS011;3478;51.462;7.338;2023-02-28T20:32:35;10.30;;;6.90;;
6878;SDS011;3478;51.462;7.338;2023-02-28T20:37:38;12.67;;;7.37;;
6878;SDS011;3478;51.462;7.338;2023-02-28T20:42:40;9.40;;;7.13;;
6878;SDS011;3478;51.462;7.338;2023-02-28T20:47:43;8.37;;;6.67;;
6878;SDS011;3478;51.462;7.338;2023-02-28T20:52:45;7.10;;;6.30;;
6878;SDS011;3478;51.462;7.338;2023-02-28T20:57:47;7.87;;;6.67;;
6878;SDS011;3478;51.462;7.338;2023-02-28T21:02:51;8.00;;;6.80;;
6878;SDS011;3478;51.462;7.338;2023-02-28T21:07:53;10.53;;;7.27;;
6878;SDS011;3478;51.462;7.338;2023-02-28T21:12:55;9.83;;;8.87;;
6878;SDS011;3478;51.462;7.338;2023-02-28T21:17:58;12.80;;;8.10;;
6878;SDS011;3478;51.462;7.338;2023-02-28T21:23:00;10.43;;;8.80;;
6878;SDS011;3478;51.462;7.338;2023-02-28T21:28:02;11.07;;;8.23;;
6878;SDS011;3478;51.462;7.338;2023-02-28T21:33:06;14.13;;;7.30;;
6878;SDS011;3478;51.462;7.338;2023-02-28T21:38:07;8.47;;;7.67;;
6878;SDS011;3478;51.462;7.338;2023-02-28T21:43:09;7.93;;;6.90;;
6878;SDS011;3478;51.462;7.338;2023-02-28T21:48:12;12.00;;;8.70;;
6878;SDS011;3478;51.462;7.338;2023-02-28T21:53:14;8.50;;;7.70;;
6878;SDS011;3478;51.462;7.338;2023-02-28T21:58:16;11.47;;;7.60;;
6878;SDS011;3478;51.462;7.338;2023-02-28T22:03:20;7.53;;;6.87;;
6878;SDS011;3478;51.462;7.338;2023-02-28T22:08:21;7.57;;;6.77;;
6878;SDS011;3478;51.462;7.338;2023-02-28T22:13:23;8.87;;;7.97;;
6878;SDS011;3478;51.462;7.338;2023-02-28T22:18:26;7.53;;;6.83;;
6878;SDS011;3478;51.462;7.338;2023-02-28T22:23:28;7.57;;;6.83;;
6878;SDS011;3478;51.462;7.338;2023-02-28T22:28:30;6.47;;;5.90;;
6878;SDS011;3478;51.462;7.338;2023-02-28T22:33:34;11.20;;;7.93;;
6878;SDS011;3478;51.462;7.338;2023-02-28T22:38:35;10.70;;;8.13;;
6878;SDS011;3478;51.462;7.338;2023-02-28T22:43:38;8.53;;;7.13;;
6878;SDS011;3478;51.462;7.338;2023-02-28T22:48:41;7.07;;;6.57;;
6878;SDS011;3478;51.462;7.338;2023-02-28T22:53:44;7.40;;;6.63;;
6878;SDS011;3478;51.462;7.338;2023-02-28T22:58:47;8.83;;;6.90;;
6878;SDS011;3478;51.462;7.338;2023-02-28T23:03:51;7.50;;;6.80;;
6878;SDS011;3478;51.462;7.338;2023-02-28T23:08:55;13.10;;;7.80;;
6878;SDS011;3478;51.462;7.338;2023-02-28T23:13:58;13.73;;;8.40;;
6878;SDS011;3478;51.462;7.338;2023-02-28T23:19:03;8.33;;;7.53;;
6878;SDS011;3478;51.462;7.338;2023-02-28T23:24:07;9.63;;;7.20;;
6878;SDS011;3478;51.462;7.338;2023-02-28T23:29:10;9.23;;;8.07;;
6878;SDS011;3478;51.462;7.338;2023-02-28T23:34:14;8.23;;;6.87;;
6878;SDS011;3478;51.462;7.338;2023-02-28T23:39:23;8.37;;;7.40;;
6878;SDS011;3478;51.462;7.338;2023-02-28T23:44:25;7.83;;;7.13;;
6878;SDS011;3478;51.462;7.338;2023-02-28T23:49:29;9.40;;;7.23;;
6878;SDS011;3478;51.462;7.338;2023-02-28T23:54:31;6.83;;;6.33;;
6878;SDS011;3478;51.462;7.338;2023-02-28T23:59:32;9.63;;;7.10;;
